createdAt,value
2018-02-15T00:09:41.735Z,81.16
2018-02-15T00:30:16.303Z,81.85
2018-02-15T00:50:50.336Z,81.75
2018-02-15T01:11:24.550Z,81.50
2018-02-15T01:32:01.542Z,82.12
2018-02-15T01:52:36.811Z,81.34
2018-02-15T02:13:13.004Z,82.05
2018-02-15T02:33:49.196Z,81.74
2018-02-15T02:54:25.390Z,81.53
2018-02-15T03:14:56.666Z,81.62
2018-02-15T03:35:31.018Z,81.88
2018-02-15T03:56:04.754Z,82.08
2018-02-15T04:16:39.411Z,81.60
2018-02-15T04:37:12.546Z,83.19
2018-02-15T04:57:44.732Z,84.45
2018-02-15T05:18:20.245Z,85.10
2018-02-15T05:38:54.351Z,85.98
2018-02-15T05:59:28.395Z,85.29
2018-02-15T06:20:04.611Z,87.12
2018-02-15T06:40:39.862Z,86.92
2018-02-15T07:01:15.133Z,87.18
2018-02-15T07:21:49.793Z,87.38
2018-02-15T07:42:23.526Z,87.97
2018-02-15T08:03:01.873Z,89.42
2018-02-15T08:23:38.063Z,90.74
2018-02-15T08:44:15.712Z,91.13
2018-02-15T09:04:49.526Z,91.50
2018-02-15T09:25:24.799Z,91.80
2018-02-15T09:45:57.921Z,92.76
2018-02-15T10:06:33.189Z,91.82
2018-02-15T10:27:09.718Z,92.59
2018-02-15T10:47:44.007Z,91.59
2018-02-15T11:08:19.154Z,90.67
2018-02-15T11:28:53.383Z,90.72
2018-02-15T11:49:27.399Z,90.54
2018-02-15T12:10:00.520Z,91.08
2018-02-15T12:30:35.792Z,91.92
2018-02-15T12:51:10.420Z,92.25
2018-02-15T13:11:49.101Z,92.64
2018-02-15T13:32:25.608Z,92.98
2018-02-15T13:53:05.785Z,92.70
2018-02-15T14:13:40.137Z,93.63
2018-02-15T14:34:12.612Z,93.04
2018-02-15T14:54:46.736Z,93.07
2018-02-15T15:15:21.650Z,93.60
2018-02-15T15:35:56.228Z,93.78
2018-02-15T15:56:30.395Z,93.51
2018-02-15T16:17:04.402Z,93.70
2018-02-15T16:37:35.676Z,93.38
2018-02-15T16:58:07.873Z,93.49
2018-02-15T17:18:42.833Z,93.67
2018-02-15T17:39:18.110Z,94.09
2018-02-15T17:59:52.765Z,93.98
2018-02-15T18:20:28.648Z,93.72
2018-02-15T18:41:02.145Z,93.86
2018-02-15T19:01:35.199Z,93.76
2018-02-15T19:22:10.579Z,93.41
2018-02-15T19:36:46.930Z,93.71
2018-02-15T19:57:22.257Z,93.47
2018-02-15T20:17:57.474Z,93.61
2018-02-15T20:38:36.748Z,93.88
2018-02-15T20:59:08.020Z,93.76
2018-02-15T21:19:42.400Z,93.58
2018-02-15T21:40:16.410Z,93.95
2018-02-15T22:00:54.449Z,93.40
2018-02-15T22:21:31.874Z,93.84
2018-02-15T22:42:08.988Z,94.09
2018-02-15T23:02:46.405Z,93.90
2018-02-15T23:23:21.677Z,94.67
2018-02-15T23:43:56.079Z,94.43
